createdAt,value
2022-12-04T00:01:55.820Z,25.90
2022-12-04T00:04:24.569Z,27.67
2022-12-04T00:06:58.960Z,27.80
2022-12-04T00:09:27.798Z,25.43
2022-12-04T00:11:55.982Z,25.03
2022-12-04T00:14:24.223Z,26.10
2022-12-04T00:16:52.431Z,26.57
2022-12-04T00:19:20.873Z,26.70
2022-12-04T00:21:50.764Z,27.00
2022-12-04T00:24:20.421Z,23.10
2022-12-04T00:26:48.476Z,24.80
2022-12-04T00:29:16.885Z,24.23
2022-12-04T00:31:44.943Z,25.77
2022-12-04T00:34:13.259Z,26.23
2022-12-04T00:36:41.512Z,25.07
2022-12-04T00:39:09.979Z,25.70
2022-12-04T00:41:39.472Z,24.30
2022-12-04T00:44:07.814Z,26.43
2022-12-04T00:46:35.801Z,24.50
2022-12-04T00:49:04.131Z,25.07
2022-12-04T00:51:32.177Z,24.47
2022-12-04T00:54:00.770Z,24.00
2022-12-04T00:56:30.375Z,25.27
2022-12-04T00:59:02.164Z,24.83
2022-12-04T01:01:31.158Z,24.77
2022-12-04T01:03:59.585Z,24.50
2022-12-04T01:06:29.673Z,23.63
2022-12-04T01:08:59.058Z,23.53
2022-12-04T01:11:28.081Z,25.37
2022-12-04T01:13:57.322Z,24.67
2022-12-04T01:16:28.670Z,23.23
2022-12-04T01:18:57.107Z,24.00
2022-12-04T01:21:25.174Z,22.63
2022-12-04T01:23:53.524Z,23.83
2022-12-04T01:26:21.646Z,27.30
2022-12-04T01:28:50.125Z,24.13
2022-12-04T01:31:20.067Z,24.00
2022-12-04T01:33:50.268Z,24.37
2022-12-04T01:36:19.852Z,22.27
2022-12-04T01:38:48.279Z,24.20
2022-12-04T01:41:19.574Z,24.90
2022-12-04T01:44:14.205Z,21.60
2022-12-04T01:46:43.218Z,23.73
2022-12-04T01:49:16.459Z,24.20
2022-12-04T01:51:49.212Z,24.27
2022-12-04T01:54:23.344Z,25.07
2022-12-04T01:56:55.391Z,23.77
2022-12-04T01:59:29.936Z,25.93
2022-12-04T02:02:01.885Z,22.73
2022-12-04T02:04:34.317Z,24.07
2022-12-04T02:07:02.332Z,23.33
2022-12-04T02:09:31.539Z,24.90
2022-12-04T02:12:08.338Z,25.20
2022-12-04T02:14:45.410Z,24.27
2022-12-04T02:17:21.098Z,23.60
2022-12-04T02:20:12.939Z,23.83
2022-12-04T02:23:10.705Z,24.33
2022-12-04T02:25:45.904Z,25.87
2022-12-04T02:28:22.901Z,21.83
2022-12-04T02:30:53.813Z,23.60
2022-12-04T02:33:26.502Z,22.67
2022-12-04T02:36:01.851Z,24.17
2022-12-04T02:38:36.617Z,24.63
2022-12-04T02:41:11.885Z,24.77
2022-12-04T02:43:44.858Z,24.47
2022-12-04T02:46:18.217Z,25.00
2022-12-04T02:48:51.417Z,24.03
2022-12-04T02:51:22.700Z,23.70
2022-12-04T02:53:53.866Z,24.43
2022-12-04T02:56:26.309Z,24.67
2022-12-04T02:58:58.116Z,22.10
2022-12-04T03:01:30.537Z,23.30
2022-12-04T03:04:02.953Z,23.67
2022-12-04T03:06:35.263Z,22.50
2022-12-04T03:09:08.941Z,22.50
2022-12-04T03:11:39.764Z,23.00
2022-12-04T03:14:14.735Z,24.67
2022-12-04T03:16:44.151Z,24.77
2022-12-04T03:19:15.624Z,23.07
2022-12-04T03:21:50.085Z,23.57
2022-12-04T03:24:23.655Z,24.43
2022-12-04T03:26:57.084Z,22.30
2022-12-04T03:29:32.028Z,24.13
2022-12-04T03:32:08.120Z,22.50
2022-12-04T03:34:56.508Z,24.33
2022-12-04T03:37:32.812Z,23.30
2022-12-04T03:40:07.156Z,23.00
2022-12-04T03:42:42.040Z,24.37
2022-12-04T03:45:18.758Z,23.77
2022-12-04T03:47:53.948Z,24.17
2022-12-04T03:50:31.123Z,22.23
2022-12-04T03:53:04.724Z,24.90
2022-12-04T03:55:40.183Z,22.20
2022-12-04T03:58:15.105Z,23.70
2022-12-04T04:00:46.054Z,21.73
2022-12-04T04:03:18.695Z,21.53
2022-12-04T04:05:50.060Z,23.40
2022-12-04T04:08:27.295Z,22.97
2022-12-04T04:11:00.420Z,20.67
2022-12-04T04:13:52.066Z,22.97
2022-12-04T04:16:43.346Z,23.07
2022-12-04T04:19:32.597Z,25.00
2022-12-04T04:22:21.594Z,22.47
2022-12-04T04:24:55.659Z,23.27
2022-12-04T04:27:23.996Z,24.93
2022-12-04T04:29:53.303Z,23.67
2022-12-04T04:32:32.078Z,23.27
2022-12-04T04:35:06.786Z,23.07
2022-12-04T04:37:40.317Z,22.77
2022-12-04T04:40:14.885Z,23.23
2022-12-04T04:42:50.340Z,26.40
2022-12-04T04:45:22.564Z,25.20
2022-12-04T04:47:55.484Z,24.67
2022-12-04T04:50:24.679Z,24.10
2022-12-04T04:52:59.885Z,24.77
2022-12-04T04:55:29.205Z,26.07
2022-12-04T04:58:07.972Z,24.50
2022-12-04T05:00:36.910Z,23.53
2022-12-04T05:03:06.562Z,24.43
2022-12-04T05:05:35.079Z,23.60
2022-12-04T05:08:03.183Z,25.17
2022-12-04T05:10:31.496Z,26.37
2022-12-04T05:12:59.494Z,24.93
2022-12-04T05:15:27.854Z,25.63
2022-12-04T05:17:55.833Z,23.40
2022-12-04T05:20:25.477Z,25.77
2022-12-04T05:22:53.503Z,24.40
2022-12-04T05:25:21.776Z,24.37
2022-12-04T05:27:49.833Z,24.80
2022-12-04T05:30:18.350Z,23.53
2022-12-04T05:32:46.615Z,27.07
2022-12-04T05:35:15.027Z,25.23
2022-12-04T05:37:45.567Z,28.53
2022-12-04T05:40:14.216Z,25.87
2022-12-04T05:42:42.198Z,24.20
2022-12-04T05:45:11.089Z,26.80
2022-12-04T05:47:40.170Z,24.60
2022-12-04T05:50:10.036Z,25.37
2022-12-04T05:52:38.163Z,24.67
2022-12-04T05:55:08.566Z,22.47
2022-12-04T05:57:36.710Z,24.03
2022-12-04T06:00:06.370Z,24.77
2022-12-04T06:02:39.527Z,24.87
2022-12-04T06:05:08.605Z,25.60
2022-12-04T06:07:36.810Z,25.50
2022-12-04T06:10:07.936Z,24.93
2022-12-04T06:12:35.998Z,24.77
2022-12-04T06:15:05.167Z,23.53
2022-12-04T06:17:33.165Z,22.17
2022-12-04T06:20:05.319Z,24.73
2022-12-04T06:22:36.248Z,22.83
2022-12-04T06:25:05.202Z,22.70
2022-12-04T06:27:34.525Z,22.13
2022-12-04T06:30:03.653Z,22.23
2022-12-04T06:32:31.642Z,21.93
2022-12-04T06:35:00.032Z,23.60
2022-12-04T06:37:28.350Z,22.50
2022-12-04T06:39:57.080Z,22.23
2022-12-04T06:42:25.329Z,26.20
2022-12-04T06:44:55.442Z,22.87
2022-12-04T06:47:23.641Z,23.73
2022-12-04T06:49:52.287Z,25.10
2022-12-04T06:52:20.422Z,22.33
2022-12-04T06:54:49.002Z,23.97
2022-12-04T06:57:17.065Z,20.97
2022-12-04T06:59:45.571Z,23.63
2022-12-04T07:02:15.052Z,19.93
2022-12-04T07:04:43.479Z,23.60
2022-12-04T07:07:11.561Z,22.03
2022-12-04T07:09:39.981Z,19.93
2022-12-04T07:12:08.308Z,22.10
2022-12-04T07:14:36.594Z,23.70
2022-12-04T07:17:04.675Z,24.10
2022-12-04T07:19:34.324Z,22.37
2022-12-04T07:22:02.360Z,22.67
2022-12-04T07:24:30.671Z,20.70
2022-12-04T07:26:58.643Z,21.73
2022-12-04T07:29:26.949Z,22.53
2022-12-04T07:31:55.083Z,22.23
2022-12-04T07:34:23.495Z,19.87
2022-12-04T07:36:52.848Z,20.40
2022-12-04T07:39:21.104Z,19.77
2022-12-04T07:41:49.130Z,20.07
2022-12-04T07:44:17.401Z,20.70
2022-12-04T07:46:45.492Z,21.63
2022-12-04T07:49:13.944Z,21.63
2022-12-04T07:51:41.942Z,21.93
2022-12-04T07:54:11.561Z,22.27
2022-12-04T07:56:39.572Z,22.10
2022-12-04T07:59:07.941Z,20.83
2022-12-04T08:01:36.143Z,21.60
2022-12-04T08:04:04.650Z,19.37
2022-12-04T08:06:34.964Z,20.90
2022-12-04T08:09:07.931Z,20.27
2022-12-04T08:11:39.755Z,19.60
2022-12-04T08:14:09.558Z,19.70
2022-12-04T08:16:37.726Z,21.73
2022-12-04T08:19:06.254Z,21.40
2022-12-04T08:21:34.619Z,21.73
2022-12-04T08:24:03.849Z,21.50
2022-12-04T08:26:33.567Z,22.90
2022-12-04T08:29:04.386Z,21.47
2022-12-04T08:31:34.675Z,22.17
2022-12-04T08:34:05.411Z,20.57
2022-12-04T08:36:35.190Z,21.73
2022-12-04T08:39:04.641Z,20.80
2022-12-04T08:41:34.682Z,20.57
2022-12-04T08:44:04.762Z,19.90
2022-12-04T08:46:33.355Z,20.83
2022-12-04T08:49:02.080Z,19.67
2022-12-04T08:51:32.284Z,20.23
2022-12-04T08:54:03.641Z,19.27
2022-12-04T08:56:33.656Z,19.53
2022-12-04T08:59:04.122Z,19.10
2022-12-04T09:01:33.151Z,19.23
2022-12-04T09:04:01.843Z,19.43
2022-12-04T09:06:30.086Z,19.57
2022-12-04T09:08:58.758Z,19.87
2022-12-04T09:11:29.246Z,20.87
2022-12-04T09:13:57.769Z,18.17
2022-12-04T09:16:27.735Z,18.93
2022-12-04T09:18:57.929Z,18.93
2022-12-04T09:21:26.679Z,16.97
2022-12-04T09:23:55.632Z,17.53
2022-12-04T09:26:26.314Z,16.77
2022-12-04T09:28:56.389Z,18.07
2022-12-04T09:31:25.256Z,19.57
2022-12-04T09:33:55.743Z,19.77
2022-12-04T09:36:24.447Z,18.20
2022-12-04T09:38:54.764Z,18.23
2022-12-04T09:41:51.405Z,18.50
2022-12-04T09:44:24.648Z,17.63
2022-12-04T09:46:56.288Z,18.97
2022-12-04T09:49:30.389Z,18.90
2022-12-04T09:52:03.285Z,19.20
2022-12-04T09:54:39.140Z,20.37
2022-12-04T09:57:16.301Z,18.87
2022-12-04T09:59:45.925Z,20.53
2022-12-04T10:02:29.653Z,19.90
2022-12-04T10:05:00.093Z,18.23
2022-12-04T10:07:34.693Z,18.93
2022-12-04T10:10:09.142Z,18.17
2022-12-04T10:12:48.508Z,17.63
2022-12-04T10:15:30.604Z,18.50
2022-12-04T10:18:12.874Z,19.37
2022-12-04T10:21:02.679Z,20.20
2022-12-04T10:23:41.799Z,21.20
2022-12-04T10:26:15.930Z,19.53
2022-12-04T10:28:54.873Z,19.03
2022-12-04T10:31:25.568Z,21.47
2022-12-04T10:33:57.115Z,21.90
2022-12-04T10:36:31.545Z,21.37
2022-12-04T10:39:03.523Z,19.03
2022-12-04T10:41:41.670Z,23.53
2022-12-04T10:44:15.317Z,19.30
2022-12-04T10:46:46.181Z,18.70
2022-12-04T10:49:19.017Z,21.20
2022-12-04T10:51:49.708Z,19.83
2022-12-04T10:54:22.354Z,20.10
2022-12-04T10:56:55.965Z,22.20
2022-12-04T10:59:24.697Z,17.30
2022-12-04T11:02:04.813Z,19.87
2022-12-04T11:04:36.375Z,20.37
2022-12-04T11:07:08.698Z,19.83
2022-12-04T11:09:36.908Z,19.83
2022-12-04T11:12:17.257Z,18.73
2022-12-04T11:14:47.357Z,21.60
2022-12-04T11:17:19.032Z,20.73
2022-12-04T11:19:47.510Z,20.00
2022-12-04T11:22:20.283Z,20.57
2022-12-04T11:24:53.859Z,20.97
2022-12-04T11:27:27.120Z,21.73
2022-12-04T11:29:56.706Z,19.97
2022-12-04T11:32:27.258Z,21.40
2022-12-04T11:34:58.910Z,18.33
2022-12-04T11:37:31.440Z,21.07
2022-12-04T11:39:59.794Z,20.30
2022-12-04T11:42:30.185Z,21.57
2022-12-04T11:44:59.632Z,20.57
2022-12-04T11:47:30.276Z,20.70
2022-12-04T11:50:11.463Z,20.60
2022-12-04T11:52:52.047Z,19.90
2022-12-04T11:55:29.039Z,20.40
2022-12-04T11:58:16.682Z,22.37
2022-12-04T12:00:52.042Z,22.03
2022-12-04T12:03:27.502Z,19.63
2022-12-04T12:06:12.359Z,18.57
2022-12-04T12:08:55.390Z,19.17
2022-12-04T12:11:30.636Z,19.20
2022-12-04T12:14:08.593Z,19.60
2022-12-04T12:16:48.500Z,18.67
2022-12-04T12:19:42.835Z,18.83
2022-12-04T12:22:21.718Z,19.07
2022-12-04T12:24:59.043Z,18.10
2022-12-04T12:27:51.297Z,17.30
2022-12-04T12:30:21.926Z,16.77
2022-12-04T12:33:01.907Z,17.17
2022-12-04T12:35:35.096Z,17.80
2022-12-04T12:38:07.722Z,18.40
2022-12-04T12:40:42.157Z,19.10
2022-12-04T12:43:16.886Z,19.03
2022-12-04T12:45:52.009Z,18.87
2022-12-04T12:48:28.698Z,19.30
2022-12-04T12:51:28.441Z,18.13
2022-12-04T12:53:53.588Z,21.10
2022-12-04T12:56:32.125Z,18.60
2022-12-04T12:59:04.072Z,18.03
2022-12-04T13:01:40.818Z,19.37
2022-12-04T13:04:14.332Z,18.67
2022-12-04T13:06:49.636Z,17.83
2022-12-04T13:09:25.382Z,18.33
2022-12-04T13:12:00.227Z,17.90
2022-12-04T13:14:28.628Z,18.33
2022-12-04T13:17:01.633Z,19.03
2022-12-04T13:19:33.542Z,18.50
2022-12-04T13:22:14.797Z,19.63
2022-12-04T13:25:04.062Z,20.50
2022-12-04T13:27:46.263Z,20.23
2022-12-04T13:30:19.809Z,21.30
2022-12-04T13:33:18.654Z,20.73
2022-12-04T13:36:20.045Z,19.53
2022-12-04T13:39:03.210Z,21.23
2022-12-04T13:41:34.650Z,22.77
2022-12-04T13:44:14.225Z,20.17
2022-12-04T13:46:56.900Z,20.53
2022-12-04T13:49:28.286Z,21.43
2022-12-04T13:51:58.277Z,20.43
2022-12-04T13:54:34.967Z,23.43
2022-12-04T13:57:20.941Z,19.80
2022-12-04T14:00:01.740Z,21.90
2022-12-04T14:02:49.301Z,20.53
2022-12-04T14:05:26.634Z,20.30
2022-12-04T14:08:07.097Z,21.50
2022-12-04T14:10:38.788Z,19.67
2022-12-04T14:13:17.717Z,22.10
2022-12-04T14:15:47.726Z,21.17
2022-12-04T14:18:25.173Z,19.60
2022-12-04T14:21:01.181Z,22.10
2022-12-04T14:23:36.488Z,21.23
2022-12-04T14:26:05.899Z,23.60
2022-12-04T14:28:44.508Z,20.73
2022-12-04T14:31:33.408Z,20.67
2022-12-04T14:34:10.636Z,23.47
2022-12-04T14:36:44.451Z,24.60
2022-12-04T14:39:19.537Z,21.80
2022-12-04T14:41:48.162Z,24.70
2022-12-04T14:44:26.451Z,21.23
2022-12-04T14:46:59.569Z,26.23
2022-12-04T14:49:41.334Z,21.77
2022-12-04T14:52:17.606Z,20.03
2022-12-04T14:54:54.037Z,22.83
2022-12-04T14:57:38.421Z,20.40
2022-12-04T15:00:16.169Z,20.80
2022-12-04T15:02:48.952Z,21.93
2022-12-04T15:05:20.895Z,21.77
2022-12-04T15:07:51.517Z,22.97
2022-12-04T15:10:40.805Z,22.37
2022-12-04T15:13:09.100Z,21.33
2022-12-04T15:15:37.726Z,20.77
2022-12-04T15:18:13.865Z,21.93
2022-12-04T15:20:52.926Z,20.13
2022-12-04T15:23:25.837Z,19.30
2022-12-04T15:25:55.627Z,22.00
2022-12-04T15:28:29.933Z,21.83
2022-12-04T15:31:00.839Z,20.20
2022-12-04T15:33:34.220Z,22.57
2022-12-04T15:36:06.431Z,20.33
2022-12-04T15:38:35.592Z,21.03
2022-12-04T15:41:04.066Z,27.37
2022-12-04T15:43:34.048Z,23.63
2022-12-04T15:46:12.405Z,19.63
2022-12-04T15:48:47.574Z,21.23
2022-12-04T15:51:20.037Z,20.63
2022-12-04T15:53:49.005Z,22.83
2022-12-04T15:56:20.674Z,20.37
2022-12-04T15:58:55.980Z,21.60
2022-12-04T16:01:24.943Z,21.73
2022-12-04T16:03:56.854Z,20.77
2022-12-04T16:06:26.689Z,21.80
2022-12-04T16:08:56.765Z,20.00
2022-12-04T16:11:36.370Z,24.27
2022-12-04T16:14:17.561Z,24.63
2022-12-04T16:16:48.281Z,19.87
2022-12-04T16:19:25.147Z,21.37
2022-12-04T16:21:53.491Z,20.73
2022-12-04T16:24:22.612Z,20.03
2022-12-04T16:26:51.771Z,20.83
2022-12-04T16:29:20.104Z,20.77
2022-12-04T16:31:48.958Z,22.87
2022-12-04T16:34:18.873Z,19.90
2022-12-04T16:36:46.940Z,23.43
2022-12-04T16:39:15.305Z,21.33
2022-12-04T16:41:43.414Z,24.83
2022-12-04T16:44:15.698Z,25.27
2022-12-04T16:46:44.561Z,23.67
2022-12-04T16:49:13.588Z,22.73
2022-12-04T16:51:46.880Z,24.90
2022-12-04T16:54:15.280Z,21.83
2022-12-04T16:56:43.364Z,20.47
2022-12-04T16:59:12.359Z,23.43
2022-12-04T17:01:45.028Z,22.57
2022-12-04T17:04:13.903Z,22.30
2022-12-04T17:06:43.962Z,21.70
2022-12-04T17:09:13.644Z,20.83
2022-12-04T17:11:42.124Z,22.00
2022-12-04T17:14:11.048Z,21.03
2022-12-04T17:16:42.554Z,20.67
2022-12-04T17:19:12.101Z,20.47
2022-12-04T17:21:41.637Z,23.40
2022-12-04T17:24:11.424Z,23.60
2022-12-04T17:26:39.582Z,22.87
2022-12-04T17:29:07.943Z,22.37
2022-12-04T17:31:36.318Z,21.63
2022-12-04T17:34:04.674Z,22.87
2022-12-04T17:36:32.710Z,21.33
2022-12-04T17:39:02.417Z,21.47
2022-12-04T17:41:31.817Z,21.90
2022-12-04T17:44:00.933Z,21.50
2022-12-04T17:46:29.341Z,22.67
2022-12-04T17:49:01.442Z,21.77
2022-12-04T17:51:32.218Z,22.87
2022-12-04T17:54:00.517Z,24.93
2022-12-04T17:56:28.891Z,23.87
2022-12-04T17:58:59.080Z,23.37
2022-12-04T18:01:28.717Z,23.10
2022-12-04T18:03:59.076Z,22.37
2022-12-04T18:06:28.834Z,22.50
2022-12-04T18:08:57.803Z,22.63
2022-12-04T18:11:29.351Z,23.33
2022-12-04T18:14:00.973Z,21.77
2022-12-04T18:16:30.922Z,21.87
2022-12-04T18:19:01.126Z,20.20
2022-12-04T18:21:32.041Z,19.27
2022-12-04T18:24:02.728Z,20.93
2022-12-04T18:26:35.131Z,19.20
2022-12-04T18:29:05.357Z,20.43
2022-12-04T18:31:34.549Z,20.10
2022-12-04T18:34:03.116Z,19.43
2022-12-04T18:36:32.481Z,19.87
2022-12-04T18:39:04.019Z,19.03
2022-12-04T18:41:32.667Z,20.60
2022-12-04T18:44:02.414Z,21.83
2022-12-04T18:46:32.996Z,20.13
2022-12-04T18:49:01.794Z,19.17
2022-12-04T18:51:31.635Z,20.03
2022-12-04T18:54:01.966Z,20.80
2022-12-04T18:56:31.143Z,21.73
2022-12-04T18:59:00.744Z,19.83
2022-12-04T19:01:31.560Z,19.77
2022-12-04T19:04:01.196Z,20.33
2022-12-04T19:06:30.881Z,19.13
2022-12-04T19:09:01.225Z,21.40
2022-12-04T19:11:29.625Z,22.97
2022-12-04T19:13:59.813Z,21.73
2022-12-04T19:16:28.636Z,23.00
2022-12-04T19:19:01.120Z,21.70
2022-12-04T19:21:31.618Z,22.47
2022-12-04T19:24:01.418Z,23.50
2022-12-04T19:26:31.593Z,19.40
2022-12-04T19:29:02.907Z,21.83
2022-12-04T19:31:34.064Z,19.47
2022-12-04T19:34:04.347Z,21.87
2022-12-04T19:36:35.487Z,22.03
2022-12-04T19:39:05.223Z,18.73
2022-12-04T19:41:35.257Z,21.57
2022-12-04T19:44:20.030Z,23.50
2022-12-04T19:46:52.351Z,21.60
2022-12-04T19:49:21.863Z,21.07
2022-12-04T19:51:50.317Z,21.20
2022-12-04T19:54:19.043Z,23.83
2022-12-04T19:56:51.105Z,19.10
2022-12-04T19:59:20.846Z,22.23
2022-12-04T20:01:49.514Z,23.27
2022-12-04T20:04:17.983Z,20.13
2022-12-04T20:06:49.775Z,22.47
2022-12-04T20:09:23.171Z,19.73
2022-12-04T20:11:52.004Z,21.73
2022-12-04T20:14:21.146Z,21.37
2022-12-04T20:16:49.956Z,20.60
2022-12-04T20:19:19.916Z,22.00
2022-12-04T20:21:56.121Z,20.70
2022-12-04T20:24:27.190Z,20.83
2022-12-04T20:26:55.519Z,20.37
2022-12-04T20:29:23.709Z,19.40
2022-12-04T20:31:52.359Z,19.57
2022-12-04T20:34:20.620Z,19.90
2022-12-04T20:36:50.572Z,19.53
2022-12-04T20:39:20.283Z,22.90
2022-12-04T20:41:49.089Z,22.67
2022-12-04T20:44:19.516Z,22.00
2022-12-04T20:46:48.641Z,21.83
2022-12-04T20:49:22.144Z,21.80
2022-12-04T20:51:52.845Z,21.07
2022-12-04T20:54:23.121Z,19.20
2022-12-04T20:56:53.421Z,19.83
2022-12-04T20:59:23.860Z,20.30
2022-12-04T21:01:53.103Z,20.23
2022-12-04T21:04:22.249Z,20.93
2022-12-04T21:06:52.203Z,22.00
2022-12-04T21:09:22.260Z,20.80
2022-12-04T21:11:52.161Z,19.43
2022-12-04T21:14:39.671Z,21.97
2022-12-04T21:17:11.702Z,19.33
2022-12-04T21:19:39.851Z,17.90
2022-12-04T21:22:09.587Z,19.87
2022-12-04T21:24:38.673Z,21.67
2022-12-04T21:27:09.288Z,20.10
2022-12-04T21:29:37.978Z,22.07
2022-12-04T21:32:07.498Z,19.83
2022-12-04T21:34:36.009Z,21.10
2022-12-04T21:37:04.506Z,20.80
2022-12-04T21:39:34.075Z,20.77
2022-12-04T21:42:20.261Z,23.17
2022-12-04T21:44:49.393Z,20.33
2022-12-04T21:47:18.398Z,20.20
2022-12-04T21:49:47.608Z,20.60
2022-12-04T21:52:17.197Z,19.73
2022-12-04T21:54:49.546Z,20.63
2022-12-04T21:57:18.327Z,22.20
2022-12-04T21:59:46.477Z,21.30
2022-12-04T22:02:16.239Z,20.27
2022-12-04T22:04:44.683Z,17.73
2022-12-04T22:07:13.263Z,19.53
2022-12-04T22:09:42.879Z,20.13
2022-12-04T22:12:41.151Z,19.57
2022-12-04T22:15:02.312Z,19.10
2022-12-04T22:17:30.767Z,19.87
2022-12-04T22:19:59.111Z,21.33
2022-12-04T22:22:27.889Z,22.00
2022-12-04T22:24:55.904Z,21.33
2022-12-04T22:27:25.941Z,21.27
2022-12-04T22:29:54.227Z,21.67
2022-12-04T22:32:22.803Z,21.50
2022-12-04T22:34:51.185Z,22.90
2022-12-04T22:37:19.499Z,21.53
2022-12-04T22:39:47.485Z,25.17
2022-12-04T22:42:15.799Z,20.63
2022-12-04T22:44:45.207Z,22.87
2022-12-04T22:47:13.544Z,21.17
2022-12-04T22:49:41.530Z,23.30
2022-12-04T22:52:09.795Z,22.23
2022-12-04T22:54:37.827Z,22.70
2022-12-04T22:57:06.263Z,20.43
2022-12-04T22:59:34.280Z,23.80
2022-12-04T23:02:03.911Z,21.43
2022-12-04T23:04:31.990Z,21.27
2022-12-04T23:07:00.397Z,19.07
2022-12-04T23:09:28.431Z,21.80
2022-12-04T23:11:57.331Z,19.73
2022-12-04T23:14:27.015Z,23.93
2022-12-04T23:16:55.916Z,20.07
2022-12-04T23:19:25.478Z,20.40
2022-12-04T23:21:57.216Z,23.77
2022-12-04T23:24:25.727Z,20.77
2022-12-04T23:26:54.434Z,21.40
2022-12-04T23:29:51.420Z,20.83
2022-12-04T23:32:11.051Z,22.97
2022-12-04T23:34:41.060Z,20.10
2022-12-04T23:37:09.605Z,20.77
2022-12-04T23:39:37.978Z,20.53
2022-12-04T23:42:06.481Z,21.23
2022-12-04T23:44:34.468Z,21.03
2022-12-04T23:47:02.885Z,19.57
2022-12-04T23:49:30.944Z,17.93
2022-12-04T23:52:00.593Z,21.17
2022-12-04T23:54:30.195Z,21.93
2022-12-04T23:56:58.460Z,20.97
2022-12-04T23:59:26.432Z,21.77
